Time,TemperatureF,DewpointF,PressureIn,WindDirection,WindDirectionDegrees,WindSpeedMPH,WindSpeedGustMPH,Humidity,HourlyPrecipIn,Conditions,Clouds,dailyrainin,SoftwareType,DateUTC
2013-04-23 00:05:00,36.9,32.5,30.42,East,90,4.0,7.0,84,0.00,,,-99.99,WeatherLink 5.5,2013-04-23 04:05:00,
2013-04-23 01:05:00,36.9,32.5,30.42,East,90,4.0,7.0,84,0.00,,,-99.99,WeatherLink 5.5,2013-04-23 05:05:00,
2013-04-23 02:05:00,36.3,29.1,30.41,East,90,5.0,16.0,75,0.00,,,-99.99,WeatherLink 5.5,2013-04-23 06:05:00,
2013-04-23 03:05:00,35.3,28.8,30.39,East,90,6.0,17.0,77,0.00,,,-99.99,WeatherLink 5.5,2013-04-23 07:05:00,
2013-04-23 04:05:00,33.4,27.6,30.36,ENE,67,8.0,17.0,79,0.00,,,-99.99,WeatherLink 5.5,2013-04-23 08:05:00,
2013-04-23 05:05:00,32.5,27.0,30.35,East,90,13.0,21.0,80,0.00,,,-99.99,WeatherLink 5.5,2013-04-23 09:05:00,
2013-04-23 06:05:00,31.6,26.7,30.35,ENE,67,9.0,18.0,82,0.00,,,-99.99,WeatherLink 5.5,2013-04-23 10:05:00,
2013-04-23 07:05:00,32.2,27.3,30.34,ENE,67,8.0,14.0,82,0.00,,,-99.99,WeatherLink 5.5,2013-04-23 11:05:00,
2013-04-23 08:05:00,32.8,27.9,30.34,ENE,67,8.0,15.0,82,0.00,,,-99.99,WeatherLink 5.5,2013-04-23 12:05:00,
2013-04-23 09:05:00,34.0,28.8,30.34,ENE,67,8.0,16.0,81,0.00,,,-99.99,WeatherLink 5.5,2013-04-23 13:05:00,
2013-04-23 10:05:00,35.3,30.7,30.33,East,90,10.0,17.0,83,0.00,,,-99.99,WeatherLink 5.5,2013-04-23 14:05:00,
2013-04-23 11:05:00,36.5,31.8,30.31,ENE,67,7.0,14.0,83,0.00,,,-99.99,WeatherLink 5.5,2013-04-23 15:05:00,
2013-04-23 12:05:00,36.5,33.0,30.31,East,90,9.0,17.0,87,0.00,,,-99.99,WeatherLink 5.5,2013-04-23 16:05:00,
2013-04-23 13:05:00,36.9,35.3,30.28,East,90,7.0,14.0,94,0.00,,,-99.99,WeatherLink 5.5,2013-04-23 17:05:00,
2013-04-23 14:05:00,39.1,35.6,30.25,ENE,67,9.0,17.0,87,0.00,,,-99.99,WeatherLink 5.5,2013-04-23 18:05:00,
2013-04-23 15:05:00,40.9,35.5,30.22,East,90,8.0,15.0,81,0.00,,,-99.99,WeatherLink 5.5,2013-04-23 19:05:00,
2013-04-23 16:05:00,42.8,36.1,30.21,ENE,67,5.0,13.0,77,0.00,,,-99.99,WeatherLink 5.5,2013-04-23 20:05:00,
2013-04-23 17:05:00,44.2,36.8,30.19,ENE,67,6.0,13.0,75,0.00,,,-99.99,WeatherLink 5.5,2013-04-23 21:05:00,
2013-04-23 18:05:00,44.3,36.5,30.17,ENE,67,7.0,16.0,74,0.00,,,-99.99,WeatherLink 5.5,2013-04-23 22:05:00,
2013-04-23 19:05:00,45.5,37.7,30.16,ENE,67,4.0,13.0,74,0.00,,,-99.99,WeatherLink 5.5,2013-04-23 23:05:00,
2013-04-23 20:05:00,45.1,38.0,30.12,ENE,67,6.0,19.0,76,0.00,,,-99.99,WeatherLink 5.5,2013-04-24 00:05:00,
2013-04-23 21:05:00,44.2,37.4,30.13,ENE,67,3.0,14.0,77,0.00,,,-99.99,WeatherLink 5.5,2013-04-24 01:05:00,
2013-04-23 22:05:00,41.8,36.7,30.10,ENE,67,7.0,16.0,82,0.00,,,-99.99,WeatherLink 5.5,2013-04-24 02:05:00,
2013-04-23 23:00:00,40.1,36.0,30.08,ENE,67,9.0,17.0,85,0.00,,,-99.99,WeatherLink 5.5,2013-04-24 03:00:00,